Time;durP1;ratioP1;P1;durP2;ratioP2;P2;SDS_P1;SDS_P2;PMS_P1;PMS_P2;Temp;Humidity;BMP_temperature;BMP_pressure;BME280_temperature;BME280_humidity;BME280_pressure;Samples;Min_cycle;Max_cycle;Signal;HPM_P1;HPM_P2
2024/04/23 00:01:29;;;;;;;;;;;;;;;;;;139994;1256;22242;-82
2024/04/23 00:04:30;;;;;;;;;;;;;;;;;;140047;1256;22208;-81
2024/04/23 00:07:31;;;;;;;;;;;;;;;;;;140024;1256;22610;-81
2024/04/23 00:10:32;;;;;;;;;;;;;;;;;;140027;1256;22200;-82
2024/04/23 00:13:33;;;;;;;;;;;;;;;;;;140005;1256;22333;-82
2024/04/23 00:16:35;;;;;;;;;;;;;;;;;;139992;1256;22730;-80
2024/04/23 00:19:36;;;;;;;;;;;;;;;;;;140027;1256;22267;-81
2024/04/23 00:22:37;;;;;;;;;;;;;;;;;;140020;1256;22331;-81
2024/04/23 00:25:38;;;;;;;;;;;;;;;;;;140013;1257;22896;-81
2024/04/23 00:28:39;;;;;;;;;;;;;;;;;;139992;1256;22357;-80
2024/04/23 00:31:40;;;;;;;;;;;;;;;;;;139972;1256;22347;-81
2024/04/23 00:34:41;;;;;;;;;;;;;;;;;;139965;1256;22254;-80
2024/04/23 00:37:42;;;;;;;;;;;;;;;;;;139978;1256;22357;-80
2024/04/23 00:40:44;;;;;;;;;;;;;;;;;;140011;1257;22235;-81
2024/04/23 00:43:45;;;;;;;;;;;;;;;;;;140034;1256;22363;-80
2024/04/23 00:46:46;;;;;;;;;;;;;;;;;;140031;1256;22275;-81
2024/04/23 00:49:47;;;;;;;;;;;;;;;;;;140016;1256;22189;-80
2024/04/23 00:52:48;;;;;;;;;;;;;;;;;;140023;1256;22358;-81
2024/04/23 00:55:49;;;;;;;;;;;;;;;;;;140018;1256;22227;-81
2024/04/23 00:58:50;;;;;;;;;;;;;;;;;;140009;1256;22338;-81
2024/04/23 01:01:52;;;;;;;;;;;;;;;;;;140024;1256;22793;-81
2024/04/23 01:04:53;;;;;;;;;;;;;;;;;;140037;1257;22805;-80
2024/04/23 01:07:54;;;;;;;;;;;;;;;;;;140042;1256;22296;-81
2024/04/23 01:10:55;;;;;;;;;;;;;;;;;;140031;1256;22272;-81
2024/04/23 01:13:56;;;;;;;;;;;;;;;;;;140060;1256;22234;-81
2024/04/23 01:16:57;;;;;;;;;;;;;;;;;;140048;1256;22164;-81
2024/04/23 01:19:59;;;;;;;;;;;;;;;;;;140049;1256;22193;-81
2024/04/23 01:23:00;;;;;;;;;;;;;;;;;;140043;1256;22309;-80
2024/04/23 01:26:03;;;;;;;;;;;;;;;;;;140066;1256;22653;-81
2024/04/23 01:29:04;;;;;;;;;;;;;;;;;;140050;1256;22345;-81
2024/04/23 01:32:05;;;;;;;;;;;;;;;;;;140044;1256;22573;-81
2024/04/23 01:35:06;;;;;;;;;;;;;;;;;;140055;1256;22238;-80
2024/04/23 01:38:07;;;;;;;;;;;;;;;;;;140022;1256;22281;-80
2024/04/23 01:41:09;;;;;;;;;;;;;;;;;;140052;1256;22176;-80
2024/04/23 01:44:10;;;;;;;;;;;;;;;;;;140117;1256;22259;-79
2024/04/23 01:47:11;;;;;;;;;;;;;;;;;;140127;1256;22316;-80
2024/04/23 01:50:12;;;;;;;;;;;;;;;;;;140221;1256;22209;-79
2024/04/23 01:53:13;;;;;;;;;;;;;;;;;;140242;1256;22295;-80
2024/04/23 01:56:14;;;;;;;;;;;;;;;;;;140204;1256;22167;-80
2024/04/23 01:59:15;;;;;;;;;;;;;;;;;;140167;1256;22386;-80
2024/04/23 02:02:16;;;;;;;;;;;;;;;;;;140129;1256;22426;-80
2024/04/23 02:05:17;;;;;;;;;;;;;;;;;;140106;1256;22231;-80
2024/04/23 02:08:18;;;;;;;;;;;;;;;;;;140069;1251;22185;-80
2024/04/23 02:11:19;;;;;;;;;;;;;;;;;;140058;1256;22793;-80
2024/04/23 02:14:20;;;;;;;;;;;;;;;;;;140071;1256;22288;-81
2024/04/23 02:17:21;;;;;;;;;;;;;;;;;;140039;1256;22344;-82
2024/04/23 02:20:22;;;;;;;;;;;;;;;;;;140045;1256;22230;-81
2024/04/23 02:23:24;;;;;;;;;;;;;;;;;;140070;1256;22246;-82
2024/04/23 02:26:27;;;;;;;;;;;;;;;;;;140037;1256;22617;-82
2024/04/23 02:29:28;;;;;;;;;;;;;;;;;;140052;1256;22356;-82
2024/04/23 02:32:29;;;;;;;;;;;;;;;;;;140028;1256;22309;-81
2024/04/23 02:35:31;;;;;;;;;;;;;;;;;;140060;1254;22186;-81
2024/04/23 02:38:32;;;;;;;;;;;;;;;;;;140060;1256;22329;-81
2024/04/23 02:41:36;;;;;;;;;;;;;;;;;;140040;1257;22271;-82
2024/04/23 02:44:37;;;;;;;;;;;;;;;;;;140042;1256;22271;-81
2024/04/23 02:47:38;;;;;;;;;;;;;;;;;;140046;1256;22559;-80
2024/04/23 02:50:40;;;;;;;;;;;;;;;;;;140088;1256;22251;-80
2024/04/23 02:53:41;;;;;;;;;;;;;;;;;;140063;1256;22209;-80
2024/04/23 02:56:43;;;;;;;;;;;;;;;;;;140073;1256;22318;-82
2024/04/23 02:59:44;;;;;;;;;;;;;;;;;;140062;1256;23009;-82
2024/04/23 03:02:45;;;;;;;;;;;;;;;;;;140059;1257;22278;-81
2024/04/23 03:05:46;;;;;;;;;;;;;;;;;;140009;1256;22210;-81
2024/04/23 03:08:48;;;;;;;;;;;;;;;;;;140030;1256;22318;-81
2024/04/23 03:11:50;;;;;;;;;;;;;;;;;;140038;1256;22212;-81
2024/04/23 03:14:51;;;;;;;;;;;;;;;;;;140044;1255;22250;-81
2024/04/23 03:17:52;;;;;;;;;;;;;;;;;;140012;1256;22332;-80
2024/04/23 03:20:53;;;;;;;;;;;;;;;;;;140044;1256;22334;-80
2024/04/23 03:23:54;;;;;;;;;;;;;;;;;;140027;1256;22630;-81
2024/04/23 03:26:55;;;;;;;;;;;;;;;;;;139962;1256;22264;-79
2024/04/23 03:29:56;;;;;;;;;;;;;;;;;;139992;1253;22387;-79
2024/04/23 03:32:58;;;;;;;;;;;;;;;;;;139979;1256;22203;-79
2024/04/23 03:35:59;;;;;;;;;;;;;;;;;;139992;1256;22343;-79
2024/04/23 03:39:00;;;;;;;;;;;;;;;;;;139995;1256;22236;-80
2024/04/23 03:42:01;;;;;;;;;;;;;;;;;;139995;1256;22307;-83
2024/04/23 03:45:02;;;;;;;;;;;;;;;;;;139971;1256;22196;-80
2024/04/23 03:48:03;;;;;;;;;;;;;;;;;;139941;1256;22257;-81
2024/04/23 03:51:07;;;;;;;;;;;;;;;;;;139852;1256;22235;-79
2024/04/23 03:54:08;;;;;;;;;;;;;;;;;;139966;1256;22258;-80
2024/04/23 03:57:09;;;;;;;;;;;;;;;;;;139907;1256;22265;-79
2024/04/23 04:00:10;;;;;;;;;;;;;;;;;;139941;1256;22363;-83
2024/04/23 04:06:33;;;;;;;;;;;;;;;;;;139993;1256;22339;-79
2024/04/23 04:09:37;;;;;;;;;;;;;;;;;;140004;1256;22267;-80
2024/04/23 04:12:38;;;;;;;;;;;;;;;;;;140004;1251;22174;-81
2024/04/23 04:15:39;;;;;;;;;;;;;;;;;;140175;1253;22158;-79
2024/04/23 04:18:40;;;;;;;;;;;;;;;;;;140159;1256;22869;-79
2024/04/23 04:21:41;;;;;;;;;;;;;;;;;;140177;1256;22303;-80
2024/04/23 04:24:42;;;;;;;;;;;;;;;;;;140040;1256;22259;-80
2024/04/23 04:27:43;;;;;;;;;;;;;;;;;;139933;1256;22251;-82
2024/04/23 04:30:44;;;;;;;;;;;;;;;;;;139986;1256;22361;-80
2024/04/23 04:33:46;;;;;;;;;;;;;;;;;;139976;1256;22314;-81
2024/04/23 04:36:47;;;;;;;;;;;;;;;;;;139923;1256;22251;-81
2024/04/23 04:39:48;;;;;;;;;;;;;;;;;;139971;1256;22281;-81
2024/04/23 04:42:50;;;;;;;;;;;;;;;;;;139957;1256;22276;-81
2024/04/23 04:45:51;;;;;;;;;;;;;;;;;;139917;1256;22223;-80
2024/04/23 04:48:53;;;;;;;;;;;;;;;;;;139913;1256;22250;-80
2024/04/23 04:51:54;;;;;;;;;;;;;;;;;;139909;1253;22157;-79
2024/04/23 04:54:55;;;;;;;;;;;;;;;;;;139959;1256;22291;-80
2024/04/23 04:57:56;;;;;;;;;;;;;;;;;;139944;1256;22275;-79
2024/04/23 05:00:57;;;;;;;;;;;;;;;;;;139950;1256;22366;-79
2024/04/23 05:03:59;;;;;;;;;;;;;;;;;;139935;1256;22282;-79
2024/04/23 05:07:01;;;;;;;;;;;;;;;;;;139885;1256;22691;-79
2024/04/23 05:10:02;;;;;;;;;;;;;;;;;;139885;1253;22214;-79
2024/04/23 05:13:03;;;;;;;;;;;;;;;;;;139875;1250;22201;-79
2024/04/23 05:16:04;;;;;;;;;;;;;;;;;;139873;1256;22225;-79
2024/04/23 05:19:06;;;;;;;;;;;;;;;;;;139876;1253;22203;-79
2024/04/23 05:22:07;;;;;;;;;;;;;;;;;;139914;1256;22254;-80
2024/04/23 05:25:08;;;;;;;;;;;;;;;;;;139918;1256;22778;-80
2024/04/23 05:28:09;;;;;;;;;;;;;;;;;;139977;1256;22258;-81
2024/04/23 05:34:29;;;;;;;;;;;;;;;;;;140007;1256;22290;-81
2024/04/23 05:37:30;;;;;;;;;;;;;;;;;;140019;1256;22306;-83
2024/04/23 05:40:31;;;;;;;;;;;;;;;;;;140037;1251;22217;-80
2024/04/23 05:43:33;;;;;;;;;;;;;;;;;;140017;1256;22260;-82
2024/04/23 05:46:34;;;;;;;;;;;;;;;;;;140039;1256;22254;-81
2024/04/23 05:49:36;;;;;;;;;;;;;;;;;;140025;1256;22262;-81
2024/04/23 05:52:37;;;;;;;;;;;;;;;;;;139991;1256;22274;-80
2024/04/23 05:55:41;;;;;;;;;;;;;;;;;;140022;1256;22202;-82
2024/04/23 05:58:50;;;;;;;;;;;;;;;;;;140028;1256;22372;-82
2024/04/23 06:01:51;;;;;;;;;;;;;;;;;;139944;1256;22276;-81
2024/04/23 06:04:52;;;;;;;;;;;;;;;;;;140074;1256;22353;-81
2024/04/23 06:07:54;;;;;;;;;;;;;;;;;;140009;1256;22214;-81
2024/04/23 06:10:55;;;;;;;;;;;;;;;;;;140036;1256;22339;-81
2024/04/23 06:13:56;;;;;;;;;;;;;;;;;;140016;1256;22713;-81
2024/04/23 06:16:57;;;;;;;;;;;;;;;;;;140040;1256;22292;-81
2024/04/23 06:19:58;;;;;;;;;;;;;;;;;;140010;1256;22400;-81
2024/04/23 06:23:00;;;;;;;;;;;;;;;;;;140007;1256;22337;-81
2024/04/23 06:26:01;;;;;;;;;;;;;;;;;;140009;1256;22189;-82
2024/04/23 06:29:02;;;;;;;;;;;;;;;;;;140070;1256;22366;-82
2024/04/23 06:32:03;;;;;;;;;;;;;;;;;;140043;1256;22227;-79
2024/04/23 06:35:04;;;;;;;;;;;;;;;;;;140021;1256;22412;-80
2024/04/23 06:38:06;;;;;;;;;;;;;;;;;;140067;1256;22303;-80
2024/04/23 06:41:07;;;;;;;;;;;;;;;;;;140102;1256;22888;-81
2024/04/23 06:44:08;;;;;;;;;;;;;;;;;;140090;1256;22183;-80
2024/04/23 06:47:09;;;;;;;;;;;;;;;;;;140067;1253;22257;-80
2024/04/23 06:50:10;;;;;;;;;;;;;;;;;;140121;1256;22265;-80
2024/04/23 06:53:12;;;;;;;;;;;;;;;;;;140150;1256;22349;-80
2024/04/23 06:56:14;;;;;;;;;;;;;;;;;;140146;1256;22268;-79
2024/04/23 06:59:15;;;;;;;;;;;;;;;;;;140098;1256;22308;-79
2024/04/23 07:02:17;;;;;;;;;;;;;;;;;;140081;1256;22267;-79
2024/04/23 07:05:18;;;;;;;;;;;;;;;;;;140031;1256;22249;-80
2024/04/23 07:08:19;;;;;;;;;;;;;;;;;;140040;1256;22366;-79
2024/04/23 07:11:20;;;;;;;;;;;;;;;;;;140057;1256;23004;-79
2024/04/23 07:14:21;;;;;;;;;;;;;;;;;;140054;1256;22267;-79
2024/04/23 07:17:22;;;;;;;;;;;;;;;;;;140016;1256;22295;-79
2024/04/23 07:20:23;;;;;;;;;;;;;;;;;;140011;1256;22259;-80
2024/04/23 07:23:24;;;;;;;;;;;;;;;;;;140060;1256;22258;-80
2024/04/23 07:26:25;;;;;;;;;;;;;;;;;;139993;1256;22202;-80
2024/04/23 07:29:27;;;;;;;;;;;;;;;;;;139981;1250;22394;-79
2024/04/23 07:32:30;;;;;;;;;;;;;;;;;;140022;1256;22317;-77
2024/04/23 07:35:32;;;;;;;;;;;;;;;;;;140000;1256;22276;-80
2024/04/23 07:38:33;;;;;;;;;;;;;;;;;;140036;1256;22283;-81
2024/04/23 07:41:34;;;;;;;;;;;;;;;;;;140017;1256;22716;-80
2024/04/23 07:44:35;;;;;;;;;;;;;;;;;;139971;1256;22747;-80
2024/04/23 07:47:37;;;;;;;;;;;;;;;;;;140006;1256;22175;-78
2024/04/23 07:50:39;;;;;;;;;;;;;;;;;;140024;1256;22290;-80
2024/04/23 07:53:40;;;;;;;;;;;;;;;;;;140014;1256;22261;-79
2024/04/23 07:56:41;;;;;;;;;;;;;;;;;;140009;1256;22266;-77
2024/04/23 07:59:42;;;;;;;;;;;;;;;;;;139978;1256;22345;-78
2024/04/23 08:02:43;;;;;;;;;;;;;;;;;;139945;1256;22207;-77
2024/04/23 08:05:44;;;;;;;;;;;;;;;;;;139893;1256;22268;-77
2024/04/23 08:08:46;;;;;;;;;;;;;;;;;;139887;1256;22192;-77
2024/04/23 08:11:53;;;;;;;;;;;;;;;;;;139898;1256;22298;-78
2024/04/23 08:14:54;;;;;;;;;;;;;;;;;;139942;1256;22178;-78
2024/04/23 08:17:55;;;;;;;;;;;;;;;;;;139917;1256;22853;-78
2024/04/23 08:20:56;;;;;;;;;;;;;;;;;;139983;1256;22251;-79
2024/04/23 08:23:58;;;;;;;;;;;;;;;;;;139985;1256;22292;-79
2024/04/23 08:26:59;;;;;;;;;;;;;;;;;;140031;1256;22311;-80
2024/04/23 08:30:00;;;;;;;;;;;;;;;;;;140045;1257;22450;-77
2024/04/23 08:33:01;;;;;;;;;;;;;;;;;;139988;1256;22740;-78
2024/04/23 08:36:02;;;;;;;;;;;;;;;;;;140002;1256;23056;-79
2024/04/23 08:39:04;;;;;;;;;;;;;;;;;;139989;1256;22247;-77
2024/04/23 08:42:05;;;;;;;;;;;;;;;;;;139973;1256;22251;-77
2024/04/23 08:45:06;;;;;;;;;;;;;;;;;;139961;1256;22281;-77
2024/04/23 08:48:07;;;;;;;;;;;;;;;;;;139944;1256;22275;-76
2024/04/23 08:51:08;;;;;;;;;;;;;;;;;;139920;1256;22791;-78
2024/04/23 08:54:09;;;;;;;;;;;;;;;;;;139930;1256;22286;-78
2024/04/23 08:57:10;;;;;;;;;;;;;;;;;;140001;1256;22167;-78
2024/04/23 09:00:12;;;;;;;;;;;;;;;;;;140033;1256;22339;-79
2024/04/23 09:03:13;;;;;;;;;;;;;;;;;;140042;1256;22385;-78
2024/04/23 09:06:14;;;;;;;;;;;;;;;;;;140090;1256;22714;-79
2024/04/23 09:09:15;;;;;;;;;;;;;;;;;;140018;1256;22251;-78
2024/04/23 09:12:16;;;;;;;;;;;;;;;;;;139975;1256;22306;-76
2024/04/23 09:15:18;;;;;;;;;;;;;;;;;;139891;1256;22352;-78
2024/04/23 09:18:21;;;;;;;;;;;;;;;;;;140004;1256;22272;-78
2024/04/23 09:21:22;;;;;;;;;;;;;;;;;;140010;1256;22281;-79
2024/04/23 09:24:23;;;;;;;;;;;;;;;;;;139993;1253;23156;-79
2024/04/23 09:27:25;;;;;;;;;;;;;;;;;;139995;1256;22343;-80
2024/04/23 09:30:26;;;;;;;;;;;;;;;;;;140053;1256;22904;-80
2024/04/23 09:33:29;;;;;;;;;;;;;;;;;;139918;1256;242216;-80
2024/04/23 09:36:31;;;;;;;;;;;;;;;;;;140090;1256;22264;-81
2024/04/23 09:39:32;;;;;;;;;;;;;;;;;;140024;1256;22328;-80
2024/04/23 09:42:33;;;;;;;;;;;;;;;;;;140086;1256;22610;-79
2024/04/23 09:45:34;;;;;;;;;;;;;;;;;;140045;1256;22780;-80
2024/04/23 09:48:35;;;;;;;;;;;;;;;;;;139985;1257;22180;-79
2024/04/23 09:51:37;;;;;;;;;;;;;;;;;;140086;1256;22811;-79
2024/04/23 09:54:38;;;;;;;;;;;;;;;;;;140076;1256;22281;-78
2024/04/23 09:57:39;;;;;;;;;;;;;;;;;;140014;1256;22284;-80
2024/04/23 10:00:40;;;;;;;;;;;;;;;;;;140073;1256;22331;-80
2024/04/23 10:03:41;;;;;;;;;;;;;;;;;;140050;1256;22334;-80
2024/04/23 10:06:42;;;;;;;;;;;;;;;;;;139961;1256;22657;-79
2024/04/23 10:09:43;;;;;;;;;;;;;;;;;;139986;1256;22295;-80
2024/04/23 10:12:44;;;;;;;;;;;;;;;;;;139979;1256;22667;-79
2024/04/23 10:15:46;;;;;;;;;;;;;;;;;;139987;1256;23048;-79
2024/04/23 10:18:47;;;;;;;;;;;;;;;;;;139927;1256;22396;-78
2024/04/23 10:21:48;;;;;;;;;;;;;;;;;;139957;1256;22203;-78
2024/04/23 10:24:49;;;;;;;;;;;;;;;;;;139943;1256;22282;-79
2024/04/23 10:27:52;;;;;;;;;;;;;;;;;;139956;1256;22699;-78
2024/04/23 10:30:53;;;;;;;;;;;;;;;;;;139857;1256;22432;-79
2024/04/23 10:33:54;;;;;;;;;;;;;;;;;;139987;1256;22313;-80
2024/04/23 10:36:56;;;;;;;;;;;;;;;;;;139952;1256;22209;-78
2024/04/23 10:39:57;;;;;;;;;;;;;;;;;;140058;1256;22186;-80
2024/04/23 10:42:58;;;;;;;;;;;;;;;;;;140061;1256;22311;-81
2024/04/23 10:45:59;;;;;;;;;;;;;;;;;;140018;1256;22233;-80
2024/04/23 10:49:01;;;;;;;;;;;;;;;;;;140023;1256;22816;-79
2024/04/23 10:52:05;;;;;;;;;;;;;;;;;;140036;1256;22602;-80
2024/04/23 10:55:13;;;;;;;;;;;;;;;;;;140090;1255;22200;-80
2024/04/23 10:58:14;;;;;;;;;;;;;;;;;;140093;1256;22248;-80
2024/04/23 11:01:16;;;;;;;;;;;;;;;;;;140068;1256;22335;-80
2024/04/23 11:04:18;;;;;;;;;;;;;;;;;;140089;1256;22866;-81
2024/04/23 11:07:21;;;;;;;;;;;;;;;;;;140089;1256;22772;-83
2024/04/23 11:10:22;;;;;;;;;;;;;;;;;;140074;1256;22293;-80
2024/04/23 11:13:23;;;;;;;;;;;;;;;;;;140083;1256;22294;-81
2024/04/23 11:16:24;;;;;;;;;;;;;;;;;;140081;1256;22205;-81
2024/04/23 11:19:26;;;;;;;;;;;;;;;;;;140018;1256;22276;-81
2024/04/23 11:22:27;;;;;;;;;;;;;;;;;;140092;1256;22340;-80
2024/04/23 11:25:28;;;;;;;;;;;;;;;;;;140032;1256;22177;-80
2024/04/23 11:28:29;;;;;;;;;;;;;;;;;;140026;1256;22468;-83
2024/04/23 11:31:30;;;;;;;;;;;;;;;;;;139976;1256;22329;-81
2024/04/23 11:34:31;;;;;;;;;;;;;;;;;;139974;1256;22264;-83
2024/04/23 11:37:32;;;;;;;;;;;;;;;;;;139971;1256;22276;-81
2024/04/23 11:40:34;;;;;;;;;;;;;;;;;;139966;1256;22252;-83
2024/04/23 11:43:35;;;;;;;;;;;;;;;;;;139885;1256;22358;-84
2024/04/23 11:46:36;;;;;;;;;;;;;;;;;;139937;1256;22250;-80
2024/04/23 11:49:38;;;;;;;;;;;;;;;;;;139937;1256;22222;-81
2024/04/23 11:52:39;;;;;;;;;;;;;;;;;;139928;1256;22252;-78
2024/04/23 11:55:40;;;;;;;;;;;;;;;;;;139856;1256;23095;-77
2024/04/23 11:58:41;;;;;;;;;;;;;;;;;;139873;1256;22403;-77
2024/04/23 12:01:42;;;;;;;;;;;;;;;;;;139892;1256;22299;-76
2024/04/23 12:04:43;;;;;;;;;;;;;;;;;;139902;1256;22716;-76
2024/04/23 12:07:44;;;;;;;;;;;;;;;;;;139915;1256;22327;-78
2024/04/23 12:10:46;;;;;;;;;;;;;;;;;;139905;1256;22317;-78
2024/04/23 12:13:47;;;;;;;;;;;;;;;;;;139831;1256;22243;-75
2024/04/23 12:16:48;;;;;;;;;;;;;;;;;;139842;1256;22179;-78
2024/04/23 12:19:49;;;;;;;;;;;;;;;;;;139863;1256;22255;-76
2024/04/23 12:22:51;;;;;;;;;;;;;;;;;;139892;1256;22290;-78
2024/04/23 12:25:52;;;;;;;;;;;;;;;;;;139899;1256;22250;-78
2024/04/23 12:28:53;;;;;;;;;;;;;;;;;;139934;1256;22439;-76
2024/04/23 12:31:54;;;;;;;;;;;;;;;;;;140014;1256;22090;-80
2024/04/23 12:34:55;;;;;;;;;;;;;;;;;;140010;1256;22172;-78
2024/04/23 12:37:56;;;;;;;;;;;;;;;;;;140040;1256;22319;-78
2024/04/23 12:40:57;;;;;;;;;;;;;;;;;;140106;1253;22241;-78
2024/04/23 12:43:58;;;;;;;;;;;;;;;;;;139823;1256;22391;-76
2024/04/23 12:47:00;;;;;;;;;;;;;;;;;;138428;1266;22425;-77
2024/04/23 12:50:01;;;;;;;;;;;;;;;;;;137662;1275;22353;-76
2024/04/23 12:53:02;;;;;;;;;;;;;;;;;;137682;1275;22285;-77
2024/04/23 12:56:04;;;;;;;;;;;;;;;;;;137738;1275;22666;-77
2024/04/23 12:59:06;;;;;;;;;;;;;;;;;;137677;1275;22403;-77
2024/04/23 13:02:07;;;;;;;;;;;;;;;;;;137592;1275;22205;-78
2024/04/23 13:05:08;;;;;;;;;;;;;;;;;;137591;1275;22294;-82
2024/04/23 13:08:10;;;;;;;;;;;;;;;;;;137514;1275;22285;-80
2024/04/23 13:11:11;;;;;;;;;;;;;;;;;;137497;1275;22221;-80
2024/04/23 13:14:12;;;;;;;;;;;;;;;;;;137523;1275;22218;-80
2024/04/23 13:17:13;;;;;;;;;;;;;;;;;;137527;1275;22393;-82
2024/04/23 13:20:14;;;;;;;;;;;;;;;;;;137472;1275;22356;-77
2024/04/23 13:23:15;;;;;;;;;;;;;;;;;;137493;1275;22294;-80
2024/04/23 13:26:17;;;;;;;;;;;;;;;;;;137525;1275;22792;-80
2024/04/23 13:29:18;;;;;;;;;;;;;;;;;;137518;1275;22756;-81
2024/04/23 13:32:19;;;;;;;;;;;;;;;;;;137554;1275;22313;-81
2024/04/23 13:35:23;;;;;;;;;;;;;;;;;;137579;1275;22749;-81
2024/04/23 13:38:24;;;;;;;;;;;;;;;;;;137564;1275;22269;-82
2024/04/23 13:41:28;;;;;;;;;;;;;;;;;;137077;1280;22618;-79
2024/04/23 13:44:30;;;;;;;;;;;;;;;;;;137107;1280;22471;-83
2024/04/23 13:47:31;;;;;;;;;;;;;;;;;;137150;1280;22455;-81
2024/04/23 13:50:32;;;;;;;;;;;;;;;;;;137095;1280;22398;-82
2024/04/23 13:53:34;;;;;;;;;;;;;;;;;;137009;1280;22396;-81
2024/04/23 13:56:35;;;;;;;;;;;;;;;;;;137151;1280;22375;-81
2024/04/23 13:59:36;;;;;;;;;;;;;;;;;;137459;1275;22476;-82
2024/04/23 14:02:37;;;;;;;;;;;;;;;;;;137661;1275;22826;-82
2024/04/23 14:05:38;;;;;;;;;;;;;;;;;;137628;1275;22293;-83
2024/04/23 14:08:39;;;;;;;;;;;;;;;;;;137630;1275;22364;-77
2024/04/23 14:11:40;;;;;;;;;;;;;;;;;;137615;1275;22214;-80
2024/04/23 14:14:42;;;;;;;;;;;;;;;;;;137646;1275;22747;-78
2024/04/23 14:17:43;;;;;;;;;;;;;;;;;;137619;1271;22235;-80
2024/04/23 14:20:44;;;;;;;;;;;;;;;;;;137612;1275;22264;-80
2024/04/23 14:23:45;;;;;;;;;;;;;;;;;;137605;1275;22247;-80
2024/04/23 14:27:01;;;;;;;;;;;;;;;;;;137603;1275;22419;-81
2024/04/23 14:30:02;;;;;;;;;;;;;;;;;;137619;1275;22372;-80
2024/04/23 14:33:06;;;;;;;;;;;;;;;;;;137637;1275;22311;-80
2024/04/23 14:36:07;;;;;;;;;;;;;;;;;;137630;1275;22217;-80
2024/04/23 14:39:08;;;;;;;;;;;;;;;;;;137662;1275;22292;-81
2024/04/23 14:42:12;;;;;;;;;;;;;;;;;;137657;1275;22192;-81
2024/04/23 14:45:14;;;;;;;;;;;;;;;;;;137654;1275;22394;-82
2024/04/23 14:48:18;;;;;;;;;;;;;;;;;;137643;1275;22756;-82
2024/04/23 14:51:20;;;;;;;;;;;;;;;;;;137712;1275;22776;-82
2024/04/23 14:54:21;;;;;;;;;;;;;;;;;;137717;1275;22369;-82
2024/04/23 14:57:23;;;;;;;;;;;;;;;;;;137689;1275;22422;-82
2024/04/23 15:00:24;;;;;;;;;;;;;;;;;;137691;1275;22387;-82
2024/04/23 15:03:25;;;;;;;;;;;;;;;;;;137739;1275;22770;-82
2024/04/23 15:06:28;;;;;;;;;;;;;;;;;;137677;1275;22740;-82
2024/04/23 15:09:29;;;;;;;;;;;;;;;;;;137664;1275;22294;-83
2024/04/23 15:12:30;;;;;;;;;;;;;;;;;;137678;1275;22801;-82
2024/04/23 15:15:32;;;;;;;;;;;;;;;;;;137643;1271;22094;-81
2024/04/23 15:18:34;;;;;;;;;;;;;;;;;;137671;1275;22294;-81
2024/04/23 15:21:36;;;;;;;;;;;;;;;;;;137696;1263;22256;-81
2024/04/23 15:24:38;;;;;;;;;;;;;;;;;;137631;1275;22827;-80
2024/04/23 15:27:39;;;;;;;;;;;;;;;;;;137641;1275;22317;-81
2024/04/23 15:30:40;;;;;;;;;;;;;;;;;;137623;1275;22366;-79
2024/04/23 15:33:41;;;;;;;;;;;;;;;;;;137619;1274;22626;-81
2024/04/23 15:36:42;;;;;;;;;;;;;;;;;;137623;1273;22240;-81
2024/04/23 15:39:44;;;;;;;;;;;;;;;;;;137657;1275;22189;-81
2024/04/23 15:42:45;;;;;;;;;;;;;;;;;;137764;1275;22293;-82
2024/04/23 15:45:46;;;;;;;;;;;;;;;;;;137670;1275;22291;-81
2024/04/23 15:48:47;;;;;;;;;;;;;;;;;;137735;1275;22745;-82
2024/04/23 15:51:48;;;;;;;;;;;;;;;;;;137729;1275;22286;-81
2024/04/23 15:54:50;;;;;;;;;;;;;;;;;;137738;1275;22233;-82
2024/04/23 15:57:51;;;;;;;;;;;;;;;;;;137708;1275;22342;-82
2024/04/23 16:00:52;;;;;;;;;;;;;;;;;;137735;1275;22380;-82
2024/04/23 16:03:53;;;;;;;;;;;;;;;;;;137785;1272;22303;-83
2024/04/23 16:06:54;;;;;;;;;;;;;;;;;;137714;1274;22293;-81
2024/04/23 16:09:56;;;;;;;;;;;;;;;;;;137795;1275;22267;-81
2024/04/23 16:12:57;;;;;;;;;;;;;;;;;;137732;1275;22281;-76
2024/04/23 16:15:58;;;;;;;;;;;;;;;;;;137604;1275;22284;-75
2024/04/23 16:18:59;;;;;;;;;;;;;;;;;;137547;1275;22958;-74
2024/04/23 16:22:00;;;;;;;;;;;;;;;;;;137501;1275;22303;-74
2024/04/23 16:25:02;;;;;;;;;;;;;;;;;;137541;1275;23075;-75
2024/04/23 16:28:04;;;;;;;;;;;;;;;;;;137476;1275;22645;-76
2024/04/23 16:31:05;;;;;;;;;;;;;;;;;;137533;1275;22771;-75
2024/04/23 16:34:06;;;;;;;;;;;;;;;;;;137570;1272;22228;-76
2024/04/23 16:37:07;;;;;;;;;;;;;;;;;;137553;1275;22298;-76
2024/04/23 16:40:08;;;;;;;;;;;;;;;;;;137585;1274;22330;-77
2024/04/23 16:43:09;;;;;;;;;;;;;;;;;;137576;1275;22821;-77
2024/04/23 16:46:13;;;;;;;;;;;;;;;;;;137553;1273;22220;-76
2024/04/23 16:49:14;;;;;;;;;;;;;;;;;;137577;1273;22232;-75
2024/04/23 16:52:15;;;;;;;;;;;;;;;;;;137544;1275;22268;-76
2024/04/23 16:55:17;;;;;;;;;;;;;;;;;;137590;1275;22263;-77
2024/04/23 16:58:18;;;;;;;;;;;;;;;;;;137648;1275;22798;-76
2024/04/23 17:01:20;;;;;;;;;;;;;;;;;;137678;1275;22372;-78
2024/04/23 17:04:21;;;;;;;;;;;;;;;;;;137646;1275;22356;-78
2024/04/23 17:07:26;;;;;;;;;;;;;;;;;;137608;1275;22322;-77
2024/04/23 17:10:28;;;;;;;;;;;;;;;;;;137580;1275;22288;-76
2024/04/23 17:13:29;;;;;;;;;;;;;;;;;;137556;1272;22918;-78
2024/04/23 17:16:30;;;;;;;;;;;;;;;;;;137507;1275;22748;-76
2024/04/23 17:19:31;;;;;;;;;;;;;;;;;;137529;1275;22225;-77
2024/04/23 17:22:33;;;;;;;;;;;;;;;;;;137556;1275;22856;-76
2024/04/23 17:25:34;;;;;;;;;;;;;;;;;;137540;1275;22283;-76
2024/04/23 17:28:36;;;;;;;;;;;;;;;;;;137573;1275;22863;-76
2024/04/23 17:31:37;;;;;;;;;;;;;;;;;;137506;1275;22903;-76
2024/04/23 17:34:38;;;;;;;;;;;;;;;;;;137567;1275;22341;-76
2024/04/23 17:37:42;;;;;;;;;;;;;;;;;;137543;1275;22181;-76
2024/04/23 17:40:44;;;;;;;;;;;;;;;;;;137573;1275;22275;-76
2024/04/23 17:43:46;;;;;;;;;;;;;;;;;;137392;1275;22308;-76
2024/04/23 17:46:47;;;;;;;;;;;;;;;;;;137591;1275;22284;-76
2024/04/23 17:49:49;;;;;;;;;;;;;;;;;;137599;1275;22680;-76
2024/04/23 17:52:50;;;;;;;;;;;;;;;;;;137586;1273;22227;-76
2024/04/23 17:55:53;;;;;;;;;;;;;;;;;;137572;1275;22276;-76
2024/04/23 17:58:54;;;;;;;;;;;;;;;;;;137530;1275;22373;-75
2024/04/23 18:01:55;;;;;;;;;;;;;;;;;;137565;1275;22254;-76
2024/04/23 18:04:57;;;;;;;;;;;;;;;;;;137547;1275;22292;-76
2024/04/23 18:07:58;;;;;;;;;;;;;;;;;;137562;1275;22319;-75
2024/04/23 18:11:01;;;;;;;;;;;;;;;;;;137539;1275;22355;-76
2024/04/23 18:14:04;;;;;;;;;;;;;;;;;;137534;1275;22205;-76
2024/04/23 18:17:05;;;;;;;;;;;;;;;;;;137511;1275;22330;-76
2024/04/23 18:20:06;;;;;;;;;;;;;;;;;;137517;1275;22277;-75
2024/04/23 18:23:07;;;;;;;;;;;;;;;;;;137514;1275;22315;-76
2024/04/23 18:26:11;;;;;;;;;;;;;;;;;;137544;1275;22592;-75
2024/04/23 18:29:12;;;;;;;;;;;;;;;;;;137580;1275;22422;-76
2024/04/23 18:32:14;;;;;;;;;;;;;;;;;;137571;1275;22331;-77
2024/04/23 18:35:15;;;;;;;;;;;;;;;;;;137621;1275;22684;-76
2024/04/23 18:38:16;;;;;;;;;;;;;;;;;;137591;1275;22204;-76
2024/04/23 18:41:18;;;;;;;;;;;;;;;;;;137597;1275;22677;-76
2024/04/23 18:44:19;;;;;;;;;;;;;;;;;;137480;1275;22299;-74
2024/04/23 18:47:20;;;;;;;;;;;;;;;;;;137550;1275;22218;-76
2024/04/23 18:50:21;;;;;;;;;;;;;;;;;;137435;1275;22760;-76
2024/04/23 18:53:22;;;;;;;;;;;;;;;;;;137538;1275;22294;-76
2024/04/23 18:56:24;;;;;;;;;;;;;;;;;;137536;1275;22289;-75
2024/04/23 18:59:25;;;;;;;;;;;;;;;;;;137535;1275;22332;-75
2024/04/23 19:02:26;;;;;;;;;;;;;;;;;;137539;1275;22746;-74
2024/04/23 19:05:27;;;;;;;;;;;;;;;;;;137531;1275;22290;-77
2024/04/23 19:08:28;;;;;;;;;;;;;;;;;;137567;1275;22345;-76
2024/04/23 19:11:31;;;;;;;;;;;;;;;;;;137563;1275;22277;-77
2024/04/23 19:14:32;;;;;;;;;;;;;;;;;;137566;1275;22288;-76
2024/04/23 19:17:33;;;;;;;;;;;;;;;;;;137571;1275;22275;-77
2024/04/23 19:20:34;;;;;;;;;;;;;;;;;;137821;1275;22220;-76
2024/04/23 19:23:35;;;;;;;;;;;;;;;;;;137728;1275;22322;-76
2024/04/23 19:26:37;;;;;;;;;;;;;;;;;;137719;1275;22387;-76
2024/04/23 19:29:38;;;;;;;;;;;;;;;;;;137683;1275;22332;-76
2024/04/23 19:32:39;;;;;;;;;;;;;;;;;;137732;1275;22310;-76
2024/04/23 19:35:40;;;;;;;;;;;;;;;;;;137602;1275;22292;-76
2024/04/23 19:38:43;;;;;;;;;;;;;;;;;;137570;1275;22208;-75
2024/04/23 19:41:44;;;;;;;;;;;;;;;;;;137568;1275;22763;-76
2024/04/23 19:44:45;;;;;;;;;;;;;;;;;;137564;1275;22285;-76
2024/04/23 19:47:46;;;;;;;;;;;;;;;;;;137558;1275;22823;-76
2024/04/23 19:50:48;;;;;;;;;;;;;;;;;;137579;1275;22275;-76
2024/04/23 19:53:49;;;;;;;;;;;;;;;;;;137579;1275;22274;-76
2024/04/23 20:00:09;;;;;;;;;;;;;;;;;;137579;1275;22794;-76
2024/04/23 20:03:10;;;;;;;;;;;;;;;;;;137581;1275;22336;-76
2024/04/23 20:06:12;;;;;;;;;;;;;;;;;;137577;1275;22646;-76
2024/04/23 20:09:15;;;;;;;;;;;;;;;;;;137591;1274;22172;-77
2024/04/23 20:12:16;;;;;;;;;;;;;;;;;;137539;1275;22292;-75
2024/04/23 20:15:18;;;;;;;;;;;;;;;;;;137568;1275;22700;-76
2024/04/23 20:18:19;;;;;;;;;;;;;;;;;;137569;1275;22313;-77
2024/04/23 20:21:20;;;;;;;;;;;;;;;;;;137546;1275;22310;-76
2024/04/23 20:24:21;;;;;;;;;;;;;;;;;;137557;1275;22369;-75
2024/04/23 20:27:22;;;;;;;;;;;;;;;;;;137572;1274;22190;-77